Time;durP1;ratioP1;P1;durP2;ratioP2;P2;SDS_P1;SDS_P2;PMS_P1;PMS_P2;Temp;Humidity;BMP_temperature;BMP_pressure;BME280_temperature;BME280_humidity;BME280_pressure;Samples;Min_cycle;Max_cycle;Signal;HPM_P1;HPM_P2
2023/11/17 00:04:16;;;;;;;13.23;11.77;;;;;;;;;;10023765;28;20051;-72
2023/11/17 00:09:11;;;;;;;15.38;11.32;;;;;;;;;;10024330;28;20389;-72
2023/11/17 00:14:04;;;;;;;20.13;12.88;;;;;;;;;;10025257;28;20096;-72
2023/11/17 00:18:56;;;;;;;15.95;11.10;;;;;;;;;;10025640;28;20046;-72
2023/11/17 00:23:48;;;;;;;14.20;12.20;;;;;;;;;;10022954;28;20152;-71
2023/11/17 00:28:40;;;;;;;12.63;11.32;;;;;;;;;;10020466;28;20038;-71
2023/11/17 00:33:32;;;;;;;16.60;11.40;;;;;;;;;;10020064;28;20049;-71
2023/11/17 00:38:24;;;;;;;13.90;10.05;;;;;;;;;;10020209;28;20164;-71
2023/11/17 00:43:16;;;;;;;12.38;9.93;;;;;;;;;;10020425;28;20045;-71
2023/11/17 00:48:09;;;;;;;14.52;10.63;;;;;;;;;;10012242;28;20512;-71
2023/11/17 00:53:05;;;;;;;11.57;9.98;;;;;;;;;;10021509;28;20034;-71
2023/11/17 00:57:58;;;;;;;12.77;10.38;;;;;;;;;;10015386;28;20042;-71
2023/11/17 01:02:52;;;;;;;13.25;10.00;;;;;;;;;;10018636;28;20104;-71
2023/11/17 01:07:44;;;;;;;11.45;9.60;;;;;;;;;;10017992;28;20065;-71
2023/11/17 01:12:36;;;;;;;15.00;9.40;;;;;;;;;;10015971;28;20045;-71
2023/11/17 01:17:28;;;;;;;14.68;10.35;;;;;;;;;;10019263;28;20439;-71
2023/11/17 01:22:20;;;;;;;15.02;11.05;;;;;;;;;;10021682;28;20616;-71
2023/11/17 01:27:12;;;;;;;14.25;9.60;;;;;;;;;;10024271;28;20042;-71
2023/11/17 01:32:05;;;;;;;13.18;9.10;;;;;;;;;;10025615;28;20579;-71
2023/11/17 01:36:56;;;;;;;20.67;11.55;;;;;;;;;;10021598;28;20421;-71
2023/11/17 01:41:49;;;;;;;14.48;10.52;;;;;;;;;;10018473;28;20046;-71
2023/11/17 01:46:40;;;;;;;12.88;8.93;;;;;;;;;;10022253;28;20398;-71
2023/11/17 01:51:33;;;;;;;15.75;10.18;;;;;;;;;;10011692;28;20143;-71
2023/11/17 01:56:25;;;;;;;13.90;10.50;;;;;;;;;;10030572;28;20042;-71
2023/11/17 02:01:17;;;;;;;23.98;13.48;;;;;;;;;;10011333;28;20134;-71
2023/11/17 02:06:27;;;;;;;18.60;11.65;;;;;;;;;;10028223;28;20042;-71
2023/11/17 02:11:33;;;;;;;9.90;7.20;;;;;;;;;;10012625;28;20061;-71
2023/11/17 02:16:26;;;;;;;10.38;7.22;;;;;;;;;;10010731;28;20512;-71
2023/11/17 02:21:22;;;;;;;13.05;8.60;;;;;;;;;;10029899;28;20431;-71
2023/11/17 02:26:26;;;;;;;16.92;7.95;;;;;;;;;;10028264;28;20042;-71
2023/11/17 02:31:25;;;;;;;9.95;6.88;;;;;;;;;;10028553;28;20421;-71
2023/11/17 02:36:19;;;;;;;12.45;7.22;;;;;;;;;;9996242;28;20042;-70
2023/11/17 02:41:11;;;;;;;7.63;6.78;;;;;;;;;;10028761;28;20050;-71
2023/11/17 02:46:03;;;;;;;14.85;7.28;;;;;;;;;;10012899;28;20065;-72
2023/11/17 02:51:43;;;;;;;8.85;6.97;;;;;;;;;;10020039;28;20042;-71
2023/11/17 02:56:11;;;;;;;12.02;7.07;;;;;;;;;;10023529;28;20073;-71
2023/11/17 03:01:04;;;;;;;10.25;7.30;;;;;;;;;;10001525;28;20105;-71
2023/11/17 03:05:58;;;;;;;8.75;6.72;;;;;;;;;;10011188;28;20042;-71
2023/11/17 03:11:00;;;;;;;13.45;7.93;;;;;;;;;;10060668;28;20132;-71
2023/11/17 03:15:53;;;;;;;8.80;6.63;;;;;;;;;;10064888;28;20049;-72
2023/11/17 03:20:45;;;;;;;7.15;5.72;;;;;;;;;;10027080;28;20034;-71
2023/11/17 03:25:39;;;;;;;7.30;5.00;;;;;;;;;;10026528;28;20041;-71
2023/11/17 03:30:31;;;;;;;10.35;5.88;;;;;;;;;;10026302;28;20427;-71
2023/11/17 03:35:23;;;;;;;12.30;5.75;;;;;;;;;;10026833;28;20041;-71
2023/11/17 03:40:15;;;;;;;8.55;5.45;;;;;;;;;;10008297;28;20477;-71
2023/11/17 03:45:15;;;;;;;7.35;4.70;;;;;;;;;;9992242;28;20046;-71
2023/11/17 03:50:13;;;;;;;7.95;4.50;;;;;;;;;;10024251;28;20641;-71
2023/11/17 03:55:06;;;;;;;6.70;4.15;;;;;;;;;;10022325;28;20061;-71
2023/11/17 04:00:00;;;;;;;10.15;4.60;;;;;;;;;;10018983;28;20038;-73
2023/11/17 04:05:03;;;;;;;11.85;5.00;;;;;;;;;;10023601;28;20152;-71
2023/11/17 04:09:55;;;;;;;10.85;4.60;;;;;;;;;;10024499;28;20145;-71
2023/11/17 04:14:47;;;;;;;13.40;4.60;;;;;;;;;;10007326;28;20050;-71
2023/11/17 04:19:40;;;;;;;8.05;3.33;;;;;;;;;;10025432;28;20534;-71
2023/11/17 04:24:32;;;;;;;5.93;3.88;;;;;;;;;;10026734;28;20049;-71
2023/11/17 04:29:27;;;;;;;9.05;4.03;;;;;;;;;;10024358;28;20057;-72
2023/11/17 04:34:19;;;;;;;5.80;3.03;;;;;;;;;;10022640;28;20145;-71
2023/11/17 04:39:17;;;;;;;4.35;2.40;;;;;;;;;;10024268;28;20132;-71
2023/11/17 04:44:09;;;;;;;7.00;4.03;;;;;;;;;;10020979;28;20436;-71
2023/11/17 04:49:01;;;;;;;12.10;3.05;;;;;;;;;;10025003;28;20050;-71
2023/11/17 04:53:53;;;;;;;8.88;3.08;;;;;;;;;;10031723;28;20045;-71
2023/11/17 04:58:45;;;;;;;4.57;2.17;;;;;;;;;;10031789;28;20049;-72
2023/11/17 05:03:40;;;;;;;3.90;1.92;;;;;;;;;;10026594;28;20042;-71
2023/11/17 05:08:33;;;;;;;4.45;1.48;;;;;;;;;;10031334;28;20049;-71
2023/11/17 05:13:25;;;;;;;6.15;2.00;;;;;;;;;;10031323;28;20153;-71
2023/11/17 05:18:17;;;;;;;6.13;2.03;;;;;;;;;;10031287;28;20123;-71
2023/11/17 05:23:12;;;;;;;153.30;58.50;;;;;;;;;;10030743;28;20112;-71
2023/11/17 05:28:04;;;;;;;313.80;82.22;;;;;;;;;;10029396;28;20465;-72
2023/11/17 05:32:56;;;;;;;6.78;6.10;;;;;;;;;;10023023;28;20034;-71
2023/11/17 05:37:48;;;;;;;2.75;1.30;;;;;;;;;;10032705;28;20457;-71
2023/11/17 05:42:40;;;;;;;2.67;1.20;;;;;;;;;;10029424;28;20050;-71
2023/11/17 05:47:32;;;;;;;5.07;1.52;;;;;;;;;;10032565;28;20088;-72
2023/11/17 05:52:24;;;;;;;1.67;1.20;;;;;;;;;;10028653;28;20053;-71
2023/11/17 05:57:22;;;;;;;107.93;27.35;;;;;;;;;;10029322;28;20033;-72
2023/11/17 06:02:17;;;;;;;16.52;8.68;;;;;;;;;;10030020;28;20445;-72
2023/11/17 06:07:09;;;;;;;3.30;1.15;;;;;;;;;;10028856;28;20046;-71
2023/11/17 06:12:01;;;;;;;5.72;1.35;;;;;;;;;;10029873;28;20037;-71
2023/11/17 06:16:54;;;;;;;10.57;5.68;;;;;;;;;;10022621;28;20048;-72
2023/11/17 06:21:46;;;;;;;9.32;7.45;;;;;;;;;;10018698;28;20129;-72
2023/11/17 06:26:38;;;;;;;11.23;6.78;;;;;;;;;;10043073;28;20042;-72
2023/11/17 06:31:29;;;;;;;8.05;6.57;;;;;;;;;;10068431;28;20045;-72
2023/11/17 06:36:21;;;;;;;12.98;7.38;;;;;;;;;;10068691;28;20045;-72
2023/11/17 06:41:14;;;;;;;8.35;4.70;;;;;;;;;;10066571;28;20045;-72
2023/11/17 06:46:07;;;;;;;32.88;3.08;;;;;;;;;;10067844;28;20065;-72
2023/11/17 06:50:59;;;;;;;1.27;1.00;;;;;;;;;;10066970;28;20053;-72
2023/11/17 06:55:51;;;;;;;124.22;47.25;;;;;;;;;;10067520;28;20407;-72
2023/11/17 07:00:44;;;;;;;25.38;22.88;;;;;;;;;;10055723;28;20077;-72
2023/11/17 07:05:40;;;;;;;3.05;1.25;;;;;;;;;;10058271;28;20045;-72
2023/11/17 07:10:32;;;;;;;3.05;1.77;;;;;;;;;;10066424;28;20037;-72
2023/11/17 07:15:24;;;;;;;2.50;1.20;;;;;;;;;;10066985;28;20052;-72
2023/11/17 07:20:19;;;;;;;2.92;1.77;;;;;;;;;;10065242;28;20137;-72
2023/11/17 07:25:11;;;;;;;1.40;1.00;;;;;;;;;;10065641;28;20053;-72
2023/11/17 07:30:04;;;;;;;1.77;1.30;;;;;;;;;;10066468;28;20103;-72
2023/11/17 07:34:56;;;;;;;162.20;78.63;;;;;;;;;;10065361;28;20049;-72
2023/11/17 07:39:48;;;;;;;1.63;0.90;;;;;;;;;;10065079;28;20080;-72
2023/11/17 07:44:40;;;;;;;0.93;0.77;;;;;;;;;;10065603;28;20049;-73
2023/11/17 07:49:34;;;;;;;1.02;0.88;;;;;;;;;;10064370;28;20072;-72
2023/11/17 07:54:26;;;;;;;52.90;26.85;;;;;;;;;;10065287;28;20044;-72
2023/11/17 07:59:23;;;;;;;0.70;0.70;;;;;;;;;;10065518;28;20073;-72
2023/11/17 08:04:16;;;;;;;120.88;31.90;;;;;;;;;;10064147;28;20045;-72
2023/11/17 08:09:10;;;;;;;11.90;2.15;;;;;;;;;;10045119;28;20456;-72
2023/11/17 08:14:05;;;;;;;1.00;1.00;;;;;;;;;;10061103;28;20128;-72
2023/11/17 08:18:58;;;;;;;1.25;1.13;;;;;;;;;;10062867;28;20046;-72
2023/11/17 08:24:06;;;;;;;0.88;0.80;;;;;;;;;;10062275;28;20055;-72
2023/11/17 08:28:59;;;;;;;0.90;0.73;;;;;;;;;;10049382;28;20136;-72
2023/11/17 08:33:51;;;;;;;3.47;0.80;;;;;;;;;;10052329;28;20045;-72
2023/11/17 08:38:43;;;;;;;0.75;0.70;;;;;;;;;;10059870;28;20069;-72
2023/11/17 08:43:35;;;;;;;1.10;0.98;;;;;;;;;;10053015;28;20448;-72
2023/11/17 08:48:27;;;;;;;1.63;1.27;;;;;;;;;;10062740;28;20061;-72
2023/11/17 08:53:19;;;;;;;66.30;16.77;;;;;;;;;;10063008;28;20064;-72
2023/11/17 08:58:11;;;;;;;2.25;1.00;;;;;;;;;;10063678;28;20100;-72
2023/11/17 09:03:04;;;;;;;1.33;1.15;;;;;;;;;;10062687;28;20042;-72
2023/11/17 09:07:56;;;;;;;2.75;0.88;;;;;;;;;;10063151;28;20095;-72
2023/11/17 09:12:49;;;;;;;170.68;40.25;;;;;;;;;;10053584;28;20095;-72
2023/11/17 09:17:41;;;;;;;4.20;3.83;;;;;;;;;;10061621;28;20046;-72
2023/11/17 09:22:33;;;;;;;0.50;0.50;;;;;;;;;;10062690;28;20470;-72
2023/11/17 09:27:26;;;;;;;0.40;0.40;;;;;;;;;;10061245;28;20139;-72
2023/11/17 09:32:17;;;;;;;1.17;0.73;;;;;;;;;;10062687;28;20057;-72
2023/11/17 09:37:11;;;;;;;28.65;17.75;;;;;;;;;;10033668;28;20037;-72
2023/11/17 09:42:04;;;;;;;2.25;0.80;;;;;;;;;;10029811;28;20525;-72
2023/11/17 09:47:19;;;;;;;1.02;0.68;;;;;;;;;;10030118;28;20112;-72
2023/11/17 09:52:11;;;;;;;6.05;1.15;;;;;;;;;;10025671;28;20058;-72
2023/11/17 09:57:06;;;;;;;2.45;1.00;;;;;;;;;;10029933;28;20128;-72
2023/11/17 10:01:59;;;;;;;0.60;0.60;;;;;;;;;;10029033;28;20042;-73
2023/11/17 10:06:52;;;;;;;11.20;1.55;;;;;;;;;;10029716;28;20385;-72
2023/11/17 10:11:49;;;;;;;1.33;0.90;;;;;;;;;;10028849;28;20420;-72
2023/11/17 10:16:42;;;;;;;7.38;0.85;;;;;;;;;;10028965;28;20050;-72
2023/11/17 10:21:35;;;;;;;1.75;0.93;;;;;;;;;;10029635;28;20085;-72
2023/11/17 10:26:28;;;;;;;0.50;0.50;;;;;;;;;;10028156;28;20505;-72
2023/11/17 10:31:20;;;;;;;2.25;2.15;;;;;;;;;;10028665;28;20042;-72
2023/11/17 10:36:15;;;;;;;0.60;0.60;;;;;;;;;;10027462;28;20133;-72
2023/11/17 10:41:13;;;;;;;5.43;2.20;;;;;;;;;;10027816;28;20045;-72
2023/11/17 10:46:05;;;;;;;1.25;0.95;;;;;;;;;;10027355;28;20366;-72
2023/11/17 10:51:04;;;;;;;2.35;2.25;;;;;;;;;;10027153;28;20137;-72
2023/11/17 10:55:57;;;;;;;125.00;50.08;;;;;;;;;;10027004;28;20042;-72
2023/11/17 11:00:50;;;;;;;1.90;1.33;;;;;;;;;;10028695;28;20108;-72
2023/11/17 11:05:43;;;;;;;0.50;0.50;;;;;;;;;;10026575;28;20076;-73
2023/11/17 11:10:35;;;;;;;0.50;0.50;;;;;;;;;;10025289;28;20049;-72
2023/11/17 11:15:27;;;;;;;9.38;8.40;;;;;;;;;;10025272;28;20096;-73
2023/11/17 11:20:21;;;;;;;1.27;0.90;;;;;;;;;;10026645;28;20392;-72
2023/11/17 11:25:15;;;;;;;239.95;52.05;;;;;;;;;;10024128;28;20222;-72
2023/11/17 11:30:08;;;;;;;0.50;0.50;;;;;;;;;;10024614;28;20042;-73
2023/11/17 11:35:00;;;;;;;0.40;0.40;;;;;;;;;;10025982;28;20485;-72
2023/11/17 11:39:52;;;;;;;60.45;11.80;;;;;;;;;;10012759;28;20076;-73
2023/11/17 11:44:44;;;;;;;0.55;0.55;;;;;;;;;;10013088;28;20495;-73
2023/11/17 11:49:36;;;;;;;4.32;1.50;;;;;;;;;;10024463;28;20058;-72
2023/11/17 11:54:28;;;;;;;25.17;4.40;;;;;;;;;;10024091;28;20069;-73
2023/11/17 11:59:20;;;;;;;1.10;1.05;;;;;;;;;;10025015;28;20108;-73
2023/11/17 12:04:12;;;;;;;5.85;1.10;;;;;;;;;;10010001;28;20049;-72
2023/11/17 12:09:08;;;;;;;1.63;0.60;;;;;;;;;;10011457;28;20041;-73
2023/11/17 12:14:04;;;;;;;1.73;1.35;;;;;;;;;;10019616;28;20045;-73
2023/11/17 12:19:06;;;;;;;1.02;0.80;;;;;;;;;;10023758;28;20092;-73
2023/11/17 12:24:04;;;;;;;46.42;17.25;;;;;;;;;;10022711;28;20384;-73
2023/11/17 12:28:56;;;;;;;181.73;63.92;;;;;;;;;;10023125;28;20038;-72
2023/11/17 12:33:51;;;;;;;27.25;5.20;;;;;;;;;;10023611;28;20050;-73
2023/11/17 12:38:44;;;;;;;116.25;48.47;;;;;;;;;;10010647;28;20046;-72
2023/11/17 12:43:40;;;;;;;1.73;0.90;;;;;;;;;;10023235;28;20047;-72
2023/11/17 12:48:33;;;;;;;46.63;7.13;;;;;;;;;;10022075;28;20547;-72
2023/11/17 12:53:25;;;;;;;1.13;0.60;;;;;;;;;;10023563;28;20133;-73
2023/11/17 12:58:21;;;;;;;0.73;0.68;;;;;;;;;;10021927;28;20042;-73
2023/11/17 13:03:15;;;;;;;1.05;0.95;;;;;;;;;;10019799;28;20054;-72
2023/11/17 13:08:08;;;;;;;0.82;0.82;;;;;;;;;;10020367;28;20552;-73
2023/11/17 13:13:06;;;;;;;18.02;9.70;;;;;;;;;;10024533;28;20046;-73
2023/11/17 13:17:58;;;;;;;1.00;0.90;;;;;;;;;;10029099;28;20480;-73
2023/11/17 13:22:50;;;;;;;1.00;0.70;;;;;;;;;;10030296;28;20145;-73
2023/11/17 13:27:45;;;;;;;1.35;1.27;;;;;;;;;;10028388;28;20057;-72
2023/11/17 13:32:56;;;;;;;0.57;0.57;;;;;;;;;;10028201;28;20053;-73
2023/11/17 13:37:51;;;;;;;253.02;61.50;;;;;;;;;;10030409;28;20038;-72
2023/11/17 13:42:44;;;;;;;1.25;1.13;;;;;;;;;;10029680;28;20046;-73
2023/11/17 13:47:37;;;;;;;0.90;0.60;;;;;;;;;;10028506;28;20050;-72
2023/11/17 13:52:29;;;;;;;2.92;0.85;;;;;;;;;;10028365;28;20133;-73
2023/11/17 13:57:22;;;;;;;1.73;0.85;;;;;;;;;;10028598;28;20052;-74
2023/11/17 14:02:15;;;;;;;1.50;0.60;;;;;;;;;;10027154;28;20089;-73
2023/11/17 14:07:08;;;;;;;1.38;0.77;;;;;;;;;;10028237;28;20492;-73
2023/11/17 14:12:05;;;;;;;1.05;0.70;;;;;;;;;;10029027;28;20129;-74
2023/11/17 14:16:57;;;;;;;0.73;0.73;;;;;;;;;;10028665;28;20487;-73
2023/11/17 14:21:50;;;;;;;4.32;0.70;;;;;;;;;;10028733;28;20049;-73
2023/11/17 14:26:49;;;;;;;3.35;0.82;;;;;;;;;;10027731;28;20081;-74
2023/11/17 14:31:43;;;;;;;2.58;0.80;;;;;;;;;;10028421;28;20050;-73
2023/11/17 14:36:35;;;;;;;0.70;0.70;;;;;;;;;;10028653;28;20153;-74
2023/11/17 14:41:27;;;;;;;0.60;0.60;;;;;;;;;;10026923;28;20049;-73
2023/11/17 14:46:23;;;;;;;1.10;0.63;;;;;;;;;;10027635;28;20394;-73
2023/11/17 14:51:17;;;;;;;2.38;0.90;;;;;;;;;;10027006;28;20076;-73
2023/11/17 14:56:10;;;;;;;3.30;0.90;;;;;;;;;;10027084;28;20054;-74
2023/11/17 15:01:05;;;;;;;0.85;0.80;;;;;;;;;;10026201;28;20053;-74
2023/11/17 15:05:58;;;;;;;6.78;1.00;;;;;;;;;;10026687;28;20054;-73
2023/11/17 15:10:51;;;;;;;0.75;0.55;;;;;;;;;;10026311;28;20477;-73
2023/11/17 15:15:43;;;;;;;0.60;0.60;;;;;;;;;;10026122;28;20100;-74
2023/11/17 15:20:35;;;;;;;0.90;0.82;;;;;;;;;;10024567;28;20052;-73
2023/11/17 15:25:33;;;;;;;1.40;0.93;;;;;;;;;;10024628;28;20046;-74
2023/11/17 15:30:26;;;;;;;2.28;0.93;;;;;;;;;;10024530;28;20038;-74
2023/11/17 15:35:23;;;;;;;0.88;0.73;;;;;;;;;;10054261;28;20124;-74
2023/11/17 15:40:15;;;;;;;0.50;0.50;;;;;;;;;;10043753;28;20045;-72
2023/11/17 15:45:11;;;;;;;0.85;0.60;;;;;;;;;;10033290;28;20045;-73
2023/11/17 15:50:04;;;;;;;2.78;0.70;;;;;;;;;;10050337;28;20057;-74
2023/11/17 15:54:55;;;;;;;0.60;0.60;;;;;;;;;;10059943;28;20461;-74
2023/11/17 15:59:47;;;;;;;0.55;0.55;;;;;;;;;;10026965;28;20497;-73
2023/11/17 16:04:39;;;;;;;0.68;0.60;;;;;;;;;;10029537;28;20050;-74
2023/11/17 16:09:31;;;;;;;0.95;0.60;;;;;;;;;;10023246;28;20046;-73
2023/11/17 16:14:24;;;;;;;0.70;0.70;;;;;;;;;;10026311;28;20043;-75
2023/11/17 16:19:16;;;;;;;0.52;0.52;;;;;;;;;;10022072;28;20428;-74
2023/11/17 16:24:09;;;;;;;1.02;0.70;;;;;;;;;;10027854;28;20048;-74
2023/11/17 16:29:05;;;;;;;0.60;0.60;;;;;;;;;;10019492;28;20061;-76
2023/11/17 16:33:58;;;;;;;0.70;0.70;;;;;;;;;;10018364;28;20042;-75
2023/11/17 16:38:49;;;;;;;0.70;0.70;;;;;;;;;;10020403;28;20493;-73
2023/11/17 16:43:41;;;;;;;1.95;0.70;;;;;;;;;;10032209;28;20144;-74
2023/11/17 16:48:33;;;;;;;0.95;0.63;;;;;;;;;;10026830;28;20050;-76
2023/11/17 16:53:28;;;;;;;0.82;0.70;;;;;;;;;;10028832;28;20042;-73
2023/11/17 16:58:20;;;;;;;2.78;1.27;;;;;;;;;;10028042;28;20050;-74
2023/11/17 17:03:13;;;;;;;1.10;0.60;;;;;;;;;;10029203;28;20081;-74
2023/11/17 17:08:09;;;;;;;2.30;0.85;;;;;;;;;;10031227;28;20104;-73
2023/11/17 17:13:01;;;;;;;0.60;0.60;;;;;;;;;;10030417;28;20056;-75
2023/11/17 17:17:55;;;;;;;2.58;0.60;;;;;;;;;;10011583;28;20384;-75
2023/11/17 17:22:52;;;;;;;1.15;1.10;;;;;;;;;;10030996;28;20042;-77
2023/11/17 17:27:48;;;;;;;0.50;0.50;;;;;;;;;;10030890;28;20092;-75
2023/11/17 17:32:47;;;;;;;0.95;0.60;;;;;;;;;;10027408;28;20449;-73
2023/11/17 17:37:41;;;;;;;0.98;0.70;;;;;;;;;;10019123;28;20053;-74
2023/11/17 17:42:34;;;;;;;1.50;0.90;;;;;;;;;;10028223;28;20064;-74
2023/11/17 17:47:25;;;;;;;19.60;15.02;;;;;;;;;;10031389;28;20045;-74
2023/11/17 17:52:17;;;;;;;1.33;1.10;;;;;;;;;;10029236;28;20104;-74
2023/11/17 17:57:09;;;;;;;1.70;1.00;;;;;;;;;;10029689;28;20053;-72
2023/11/17 18:02:02;;;;;;;6.20;0.90;;;;;;;;;;10028364;28;20136;-72
2023/11/17 18:06:54;;;;;;;0.85;0.85;;;;;;;;;;10028930;28;20392;-71
2023/11/17 18:11:48;;;;;;;3.72;1.30;;;;;;;;;;10029408;28;20465;-72
2023/11/17 18:16:42;;;;;;;1.10;0.95;;;;;;;;;;10032021;28;20042;-72
2023/11/17 18:21:34;;;;;;;6.05;1.13;;;;;;;;;;10030065;28;20048;-73
2023/11/17 18:26:25;;;;;;;1.67;1.05;;;;;;;;;;10022571;28;20140;-73
2023/11/17 18:31:20;;;;;;;1.35;0.98;;;;;;;;;;10019500;28;20045;-73
2023/11/17 18:36:12;;;;;;;1.38;1.27;;;;;;;;;;10033551;28;20393;-73
2023/11/17 18:41:04;;;;;;;2.65;1.75;;;;;;;;;;10026258;28;20156;-72
2023/11/17 18:45:56;;;;;;;3.00;1.42;;;;;;;;;;10023510;28;20103;-72
2023/11/17 18:50:48;;;;;;;2.90;1.10;;;;;;;;;;10024679;28;20056;-72
2023/11/17 18:55:42;;;;;;;1.70;1.35;;;;;;;;;;10026557;28;20133;-72
2023/11/17 19:00:33;;;;;;;0.93;0.80;;;;;;;;;;10019689;28;20066;-72
2023/11/17 19:05:25;;;;;;;1.27;1.13;;;;;;;;;;10025800;28;20078;-72
2023/11/17 19:10:19;;;;;;;2.25;1.52;;;;;;;;;;10033707;28;20076;-73
2023/11/17 19:15:13;;;;;;;1.25;1.17;;;;;;;;;;10026461;28;20052;-73
2023/11/17 19:20:09;;;;;;;3.08;1.27;;;;;;;;;;10020195;28;20061;-72
2023/11/17 19:25:01;;;;;;;1.58;1.30;;;;;;;;;;10017355;28;20053;-73
2023/11/17 19:29:53;;;;;;;1.42;0.80;;;;;;;;;;10016523;28;20085;-76
2023/11/17 19:34:47;;;;;;;1.85;1.15;;;;;;;;;;10024828;28;20046;-76
2023/11/17 19:39:40;;;;;;;0.90;0.90;;;;;;;;;;10030322;28;20038;-75
2023/11/17 19:44:33;;;;;;;1.80;1.25;;;;;;;;;;10024080;28;20045;-76
2023/11/17 19:49:40;;;;;;;1.17;0.95;;;;;;;;;;10025455;28;20084;-76
2023/11/17 19:54:32;;;;;;;5.00;1.52;;;;;;;;;;10024077;28;20037;-72
2023/11/17 19:59:27;;;;;;;2.13;1.00;;;;;;;;;;10023803;28;20125;-75
2023/11/17 20:04:19;;;;;;;2.28;0.90;;;;;;;;;;10023091;28;20061;-75
2023/11/17 20:09:17;;;;;;;1.17;1.10;;;;;;;;;;10025524;28;20378;-75
2023/11/17 20:14:10;;;;;;;2.25;1.05;;;;;;;;;;10011185;28;20053;-75
2023/11/17 20:19:02;;;;;;;1.55;1.00;;;;;;;;;;10022980;28;20049;-74
2023/11/17 20:23:55;;;;;;;1.17;1.08;;;;;;;;;;10022022;28;20491;-75
2023/11/17 20:28:47;;;;;;;1.70;1.10;;;;;;;;;;10023394;28;20473;-76
2023/11/17 20:33:39;;;;;;;1.23;1.10;;;;;;;;;;10013693;28;20141;-75
2023/11/17 20:38:32;;;;;;;1.00;0.90;;;;;;;;;;10024197;28;20049;-74
2023/11/17 20:43:25;;;;;;;1.60;1.30;;;;;;;;;;10021297;28;20492;-75
2023/11/17 20:48:17;;;;;;;1.33;1.23;;;;;;;;;;10032077;28;20050;-75
2023/11/17 20:53:09;;;;;;;1.10;1.00;;;;;;;;;;10049714;28;20052;-74
2023/11/17 20:58:01;;;;;;;0.82;0.82;;;;;;;;;;10038402;28;20128;-74
2023/11/17 21:02:56;;;;;;;1.08;1.08;;;;;;;;;;10022472;28;20161;-76
2023/11/17 21:07:51;;;;;;;0.98;0.88;;;;;;;;;;10039629;28;20104;-76
2023/11/17 21:12:47;;;;;;;1.63;1.00;;;;;;;;;;10045247;28;20511;-76
2023/11/17 21:17:44;;;;;;;1.58;1.05;;;;;;;;;;10042442;28;20052;-75
2023/11/17 21:22:37;;;;;;;1.10;1.08;;;;;;;;;;10044479;28;20053;-76
2023/11/17 21:27:28;;;;;;;2.58;1.30;;;;;;;;;;10045657;28;20045;-75
2023/11/17 21:32:20;;;;;;;1.85;1.25;;;;;;;;;;10062004;28;20048;-74
2023/11/17 21:37:13;;;;;;;1.38;1.27;;;;;;;;;;10041237;28;20052;-75
2023/11/17 21:42:07;;;;;;;2.63;1.25;;;;;;;;;;10067580;28;20076;-75
2023/11/17 21:47:01;;;;;;;1.58;1.35;;;;;;;;;;10057288;28;20396;-75
2023/11/17 21:51:53;;;;;;;1.67;1.13;;;;;;;;;;10062245;28;20092;-75
2023/11/17 21:56:45;;;;;;;1.83;1.55;;;;;;;;;;10051439;28;20099;-75
2023/11/17 22:01:37;;;;;;;2.45;1.80;;;;;;;;;;10057763;28;20445;-74
2023/11/17 22:06:29;;;;;;;3.78;2.45;;;;;;;;;;10030919;28;20046;-74
2023/11/17 22:11:22;;;;;;;3.25;2.95;;;;;;;;;;10045476;28;20068;-75
2023/11/17 22:16:14;;;;;;;2.90;2.25;;;;;;;;;;10053312;28;20077;-74
2023/11/17 22:21:06;;;;;;;4.10;2.58;;;;;;;;;;10031375;28;20543;-74
2023/11/17 22:25:57;;;;;;;2.25;1.65;;;;;;;;;;10040422;28;20157;-76
2023/11/17 22:30:50;;;;;;;3.15;2.22;;;;;;;;;;10041373;28;20065;-77
2023/11/17 22:35:44;;;;;;;3.25;2.60;;;;;;;;;;10027616;28;20057;-76
2023/11/17 22:40:37;;;;;;;3.08;1.48;;;;;;;;;;10035075;28;20429;-76
2023/11/17 22:45:29;;;;;;;1.15;0.95;;;;;;;;;;10011470;28;20057;-76
2023/11/17 22:50:22;;;;;;;1.63;1.52;;;;;;;;;;10053159;28;20057;-77
2023/11/17 22:55:15;;;;;;;1.30;1.20;;;;;;;;;;10053151;28;20116;-75
2023/11/17 23:00:34;;;;;;;2.47;1.65;;;;;;;;;;10046718;28;20075;-75
2023/11/17 23:05:26;;;;;;;1.48;1.20;;;;;;;;;;10056178;28;20049;-75
2023/11/17 23:10:18;;;;;;;1.63;1.50;;;;;;;;;;10057616;28;20156;-76
2023/11/17 23:15:11;;;;;;;1.40;1.30;;;;;;;;;;10041777;28;20038;-76
2023/11/17 23:20:03;;;;;;;1.00;0.95;;;;;;;;;;10023601;28;20053;-76
2023/11/17 23:25:05;;;;;;;3.15;1.30;;;;;;;;;;10034893;28;20045;-76
2023/11/17 23:29:57;;;;;;;1.67;1.30;;;;;;;;;;10032582;28;20480;-76
2023/11/17 23:34:49;;;;;;;2.03;1.70;;;;;;;;;;10034300;28;20042;-76
2023/11/17 23:39:41;;;;;;;1.27;1.15;;;;;;;;;;10041218;28;20467;-76
2023/11/17 23:44:33;;;;;;;3.17;1.40;;;;;;;;;;10033566;28;20038;-74
2023/11/17 23:49:26;;;;;;;1.83;1.70;;;;;;;;;;10028384;28;20053;-76
2023/11/17 23:54:18;;;;;;;1.73;1.63;;;;;;;;;;10045367;28;20089;-76
2023/11/17 23:59:11;;;;;;;1.20;1.15;;;;;;;;;;10021469;28;20037;-74
